This is the latest recevied weather packets stored in our database for station/object HG5OJG-6. If no packets are shown the sender has not sent any weather packets the latest 10 day(s).
| Time | Temp. | Humidity | Pressure | Rain* | Wind** | Luminosity | Snow |
|---|---|---|---|---|---|---|---|
| 1778163370 | 17.78° C | 67% | 1012.6 hPa | 0 mm | - | 78 W/m² | - |
| 1778162148 | 18.89° C | 61% | 1012.8 hPa | 0 mm | - | 81 W/m² | - |
| 1778160976 | 19.44° C | 58% | 1012.6 hPa | 0 mm | - | 156 W/m² | - |
| 1778158604 | 20.56° C | 55% | 1012.6 hPa | 0 mm | - | 187 W/m² | - |
| 1778156775 | 21.11° C | 55% | 1012.4 hPa | 0 mm | - | 93 W/m² | - |
| 1778155593 | 21.11° C | 54% | 1012.4 hPa | 0 mm | - | 188 W/m² | - |
| 1778154977 | 21.67° C | 52% | 1012.5 hPa | 0 mm | - | 210 W/m² | - |
| 1778152574 | 21.67° C | 52% | 1012.3 hPa | 0 mm | - | 405 W/m² | - |
| 1778151318 | 21.67° C | 53% | 1012.4 hPa | 0 mm | - | 239 W/m² | - |
| 1778150722 | 22.22° C | 54% | 1012.4 hPa | 0 mm | - | 180 W/m² | - |
| 1778150125 | 22.78° C | 52% | 1012.4 hPa | 0 mm | - | 341 W/m² | - |
| 1778149519 | 23.33° C | 52% | 1012.5 hPa | 0 mm | - | 493 W/m² | - |
| 1778144167 | 20.56° C | 62% | 1012.5 hPa | 0 mm | - | 544 W/m² | - |
| 1778142348 | 18.89° C | 65% | 1012.3 hPa | 0 mm | - | 268 W/m² | - |
| 1778140569 | 18.33° C | 69% | 1012 hPa | 0 mm | - | 331 W/m² | - |
| 1778135762 | 16.67° C | 76% | 1011.8 hPa | 0 mm | - | 195 W/m² | - |
| 1778133984 | 16.11° C | 79% | 1011.5 hPa | 0 mm | - | 129 W/m² | - |
| 1778131536 | 15° C | 83% | 1011.3 hPa | 0 mm | - | 97 W/m² | - |
| 1778127939 | 13.89° C | 84% | 1010.4 hPa | 0 mm | - | 42 W/m² | - |
| 1778127418 | 13.89° C | 84% | 1010.2 hPa | 0 mm | - | 37 W/m² | - |
| 1778125546 | 13.89° C | 84% | 1010.1 hPa | 0 mm | - | 12 W/m² | - |
| 1778124324 | 13.89° C | 84% | 1010.1 hPa | 0 mm | - | 3 W/m² | - |
| 1778121938 | 13.89° C | 84% | 1010 hPa | 0 mm | - | 0 W/m² | - |
| 1778121352 | 13.89° C | 84% | 1010.1 hPa | 0 mm | - | 0 W/m² | - |
| 1778120172 | 14.44° C | 84% | 1009.9 hPa | 0 mm | - | 0 W/m² | - |
* Rain latest hour (hover to see other rain measurements)
** Current wind speed in m/s (hover to see current wind gust speed)